Portada
METAR-TAF:

METAR-TAF

Aeroports :

Agartala, Índia

latitud: 23-53-24N, longitud: 91-14-32E, altitud: 14 m

Observació

L'informe es va fer fa 16 minuts, a les 04:30 UTC
Vent calma
Temperatura 32°C
Humitat 63%
Pressió 1013 hPa
Visibilitat: 3000 m
Escasses núvols a una alçada de 2000 ft
calitja

METAR: VEAT 210430Z 00000KT 3000 HZ FEW020 32/24 Q1013 NOSIG

Hora: 10:16 (04:46 UTC)

Pronòstic

L'informe es va fer fa 2 hores i 46 minuts, a les 02:00 UTC
Pronòstic vàlid del 21 a les 03 UTC al 21 a les 12 UTC
Vent kt del Nord
Visibilitat: 3000 m
boirina
Evolucionant progressivament
l' 21 a les 04 UTC al 21 a les 06 UTC
Visibilitat: 5000 m
Escasses núvols a una alçada de 2000 ft
calitja

TAF: VEAT 210200Z 2103/2112 00000KT 3000 BR NSC BECMG 2104/2106 5000 HZ FEW020

Observacions i pronòstics meteorològics de més de 4000 aeroports (METAR i TAF).

Les estacions disponibles són els punts grocs i vermells al mapa.

Posi el ratolí al punt desitjat per veure el nom de l'estació.

Feu clic per veure les observacions i els pronòstics meteorològics.

Per canviar el mapa: feu clic els botons verds amb una creu de color negre per apropar; al botó verd amb un guió per allunyar la imatge; o en les fletxes verdes per a mapes adjacents.


METAR-TAF: